createdAt,value
2018-01-26T00:02:26.224Z,100480
2018-01-26T00:04:56.084Z,100476
2018-01-26T00:07:26.000Z,100475
2018-01-26T00:09:55.977Z,100476
2018-01-26T00:12:25.824Z,100482
2018-01-26T00:18:03.099Z,100482
2018-01-26T00:20:32.954Z,100477
2018-01-26T00:23:04.630Z,100482
2018-01-26T00:25:34.483Z,100486
2018-01-26T00:28:04.414Z,100482
2018-01-26T00:30:34.254Z,100479
2018-01-26T00:33:04.114Z,100489
2018-01-26T00:35:33.965Z,100486
2018-01-26T00:38:03.792Z,100492
2018-01-26T00:40:33.677Z,100497
2018-01-26T00:43:03.509Z,100489
2018-01-26T00:45:33.338Z,100499
2018-01-26T00:48:03.198Z,100499
2018-01-26T00:50:33.067Z,100490
2018-01-26T00:53:02.939Z,100489
2018-01-26T00:55:32.782Z,100493
2018-01-26T00:58:02.629Z,100499
2018-01-26T01:00:32.471Z,100496
2018-01-26T01:03:02.314Z,100495
2018-01-26T01:05:32.181Z,100493
2018-01-26T01:08:02.006Z,100501
2018-01-26T01:10:31.845Z,100493
2018-01-26T01:13:01.678Z,100495
2018-01-26T01:15:31.508Z,100500
2018-01-26T01:18:01.413Z,100503
2018-01-26T01:23:15.079Z,100494
2018-01-26T01:25:44.904Z,100494
2018-01-26T01:28:14.801Z,100504
2018-01-26T01:30:44.976Z,100496
2018-01-26T01:33:14.820Z,100504
2018-01-26T01:35:45.002Z,100502
2018-01-26T01:38:14.837Z,100509
2018-01-26T01:40:44.721Z,100508
2018-01-26T01:43:14.575Z,100518
2018-01-26T01:45:44.400Z,100512
2018-01-26T01:48:14.270Z,100506
2018-01-26T01:50:44.109Z,100517
2018-01-26T01:53:13.960Z,100507
2018-01-26T01:55:44.094Z,100512
2018-01-26T01:58:13.933Z,100501
2018-01-26T02:00:43.792Z,100504
2018-01-26T02:03:13.676Z,100508
2018-01-26T02:05:43.497Z,100512
2018-01-26T02:08:13.419Z,100514
2018-01-26T02:10:43.261Z,100510
2018-01-26T02:13:13.132Z,100508
2018-01-26T02:15:42.965Z,100512
2018-01-26T02:18:12.794Z,100511
2018-01-26T02:20:42.631Z,100519
2018-01-26T02:23:12.552Z,100511
2018-01-26T02:25:43.467Z,100522
2018-01-26T02:28:13.292Z,100520
2018-01-26T02:30:43.135Z,100516
2018-01-26T02:33:12.977Z,100512
2018-01-26T02:35:42.843Z,100512
2018-01-26T02:38:12.705Z,100515
2018-01-26T02:40:43.233Z,100522
2018-01-26T02:43:13.472Z,100527
2018-01-26T02:45:43.303Z,100527
2018-01-26T02:48:13.149Z,100534
2018-01-26T02:50:42.975Z,100535
2018-01-26T02:53:12.816Z,100524
2018-01-26T02:55:42.656Z,100517
2018-01-26T02:58:12.546Z,100516
2018-01-26T03:00:42.764Z,100522
2018-01-26T03:03:12.593Z,100520
2018-01-26T03:05:42.453Z,100527
2018-01-26T03:08:12.382Z,100521
2018-01-26T03:10:42.464Z,100530
2018-01-26T03:13:12.324Z,100523
2018-01-26T03:15:42.237Z,100531
2018-01-26T03:18:12.088Z,100533
2018-01-26T03:20:42.281Z,100544
2018-01-26T03:23:12.129Z,100546
2018-01-26T03:25:42.406Z,100544
2018-01-26T03:28:12.252Z,100539
2018-01-26T03:30:42.111Z,100543
2018-01-26T03:33:11.947Z,100532
2018-01-26T03:35:41.861Z,100537
2018-01-26T03:38:11.720Z,100531
2018-01-26T03:40:41.578Z,100550
2018-01-26T03:43:11.768Z,100554
2018-01-26T03:45:41.616Z,100552
2018-01-26T03:48:11.509Z,100549
2018-01-26T03:50:41.360Z,100565
2018-01-26T03:53:14.150Z,100565
2018-01-26T03:55:44.015Z,100565
2018-01-26T03:58:13.892Z,100559
2018-01-26T04:00:43.768Z,100571
2018-01-26T04:03:13.665Z,100578
2018-01-26T04:05:43.664Z,100576
2018-01-26T04:08:13.561Z,100571
2018-01-26T04:10:43.829Z,100581
2018-01-26T04:13:13.716Z,100589
2018-01-26T04:15:43.595Z,100589
2018-01-26T04:18:13.504Z,100587
2018-01-26T04:20:43.600Z,100597
2018-01-26T04:23:13.492Z,100589
2018-01-26T04:25:43.369Z,100590
2018-01-26T04:28:13.214Z,100596
2018-01-26T04:30:43.452Z,100590
2018-01-26T04:33:13.297Z,100595
2018-01-26T04:35:43.280Z,100601
2018-01-26T04:38:13.132Z,100590
2018-01-26T04:40:43.044Z,100605
2018-01-26T04:43:12.874Z,100604
2018-01-26T04:45:42.778Z,100604
2018-01-26T04:48:12.622Z,100608
2018-01-26T04:50:42.648Z,100607
2018-01-26T04:53:12.590Z,100613
2018-01-26T04:55:42.416Z,100621
2018-01-26T04:58:12.602Z,100611
2018-01-26T05:00:42.470Z,100607
2018-01-26T05:03:12.386Z,100603
2018-01-26T05:05:42.289Z,100598
2018-01-26T05:08:12.177Z,100607
2018-01-26T05:10:42.197Z,100606
2018-01-26T05:13:12.116Z,100609
2018-01-26T05:15:41.991Z,100605
2018-01-26T05:18:11.858Z,100616
2018-01-26T05:20:41.733Z,100608
2018-01-26T05:23:11.612Z,100614
2018-01-26T05:25:41.473Z,100623
2018-01-26T05:28:11.322Z,100622
2018-01-26T05:30:41.224Z,100623
2018-01-26T05:33:11.153Z,100630
2018-01-26T05:35:41.320Z,100625
2018-01-26T05:38:11.257Z,100619
2018-01-26T05:40:41.158Z,100619
2018-01-26T05:43:11.033Z,100637
2018-01-26T05:45:40.969Z,100638
2018-01-26T05:48:10.828Z,100642
2018-01-26T05:50:40.692Z,100615
2018-01-26T05:53:10.633Z,100647
2018-01-26T05:55:40.556Z,100658
2018-01-26T05:58:10.849Z,100653
2018-01-26T06:00:40.703Z,100650
2018-01-26T06:03:10.576Z,100653
2018-01-26T06:05:40.458Z,100649
2018-01-26T06:08:10.817Z,100644
2018-01-26T06:10:40.815Z,100646
2018-01-26T06:13:10.707Z,100645
2018-01-26T06:15:40.549Z,100657
2018-01-26T06:18:10.511Z,100659
2018-01-26T06:20:40.404Z,100652
2018-01-26T06:23:10.293Z,100660
2018-01-26T06:25:40.141Z,100659
2018-01-26T06:28:10.056Z,100662
2018-01-26T06:30:39.957Z,100655
2018-01-26T06:33:10.050Z,100668
2018-01-26T06:35:40.001Z,100670
2018-01-26T06:38:09.835Z,100672
2018-01-26T06:40:40.307Z,100687
2018-01-26T06:43:10.446Z,100667
2018-01-26T06:45:40.425Z,100666
2018-01-26T06:48:10.365Z,100673
2018-01-26T06:50:40.294Z,100679
2018-01-26T06:53:10.204Z,100679
2018-01-26T06:55:40.102Z,100684
2018-01-26T06:58:10.146Z,100683
2018-01-26T07:00:40.196Z,100689
2018-01-26T07:03:10.482Z,100708
2018-01-26T07:05:40.417Z,100708
2018-01-26T07:08:10.346Z,100716
2018-01-26T07:10:40.213Z,100722
2018-01-26T07:13:10.978Z,100725
2018-01-26T07:15:40.845Z,100712
2018-01-26T07:18:10.702Z,100720
2018-01-26T07:20:40.693Z,100730
2018-01-26T07:23:11.052Z,100742
2018-01-26T07:25:41.022Z,100727
2018-01-26T07:28:11.044Z,100739
2018-01-26T07:30:40.952Z,100753
2018-01-26T07:33:11.052Z,100748
2018-01-26T07:35:40.964Z,100757
2018-01-26T07:38:10.845Z,100764
2018-01-26T07:40:40.767Z,100759
2018-01-26T07:43:10.925Z,100612
2018-01-26T07:45:40.843Z,100768
2018-01-26T07:48:10.869Z,100768
2018-01-26T07:50:40.782Z,100775
2018-01-26T07:53:11.275Z,100770
2018-01-26T07:55:41.202Z,100773
2018-01-26T07:58:11.091Z,100781
2018-01-26T08:00:40.962Z,100787
2018-01-26T08:03:10.887Z,100781
2018-01-26T08:05:40.789Z,100786
2018-01-26T08:08:10.647Z,100792
2018-01-26T08:10:40.529Z,100796
2018-01-26T08:13:11.240Z,100800
2018-01-26T08:15:41.541Z,100796
2018-01-26T08:18:11.391Z,100799
2018-01-26T08:20:41.285Z,100812
2018-01-26T08:23:11.169Z,100797
2018-01-26T08:25:41.054Z,100797
2018-01-26T08:28:11.847Z,100794
2018-01-26T08:30:41.715Z,100797
2018-01-26T08:33:11.848Z,100792
2018-01-26T08:35:41.769Z,100798
2018-01-26T08:38:11.698Z,100800
2018-01-26T08:40:42.099Z,100797
2018-01-26T08:43:12.399Z,100797
2018-01-26T08:45:42.270Z,100797
2018-01-26T08:48:12.141Z,100788
2018-01-26T08:50:42.258Z,100784
2018-01-26T08:53:12.923Z,100767
2018-01-26T08:55:42.837Z,100790
2018-01-26T08:58:12.740Z,100798
2018-01-26T09:00:42.622Z,100818
2018-01-26T09:03:12.675Z,100810
2018-01-26T09:05:42.574Z,100829
2018-01-26T09:08:12.427Z,100822
2018-01-26T09:10:42.336Z,100836
2018-01-26T09:13:12.938Z,100836
2018-01-26T09:15:43.024Z,100838
2018-01-26T09:18:12.940Z,100849
2018-01-26T09:20:43.007Z,100857
2018-01-26T09:23:13.749Z,100863
2018-01-26T09:25:43.686Z,100863
2018-01-26T09:28:13.724Z,100874
2018-01-26T09:30:43.621Z,100874
2018-01-26T09:33:13.779Z,100520
2018-01-26T09:35:43.645Z,100873
2018-01-26T09:38:13.566Z,100885
2018-01-26T09:40:43.555Z,100888
2018-01-26T09:43:14.094Z,100892
2018-01-26T09:45:44.049Z,100900
2018-01-26T09:48:13.921Z,100906
2018-01-26T09:50:43.812Z,100923
2018-01-26T09:53:13.975Z,100970
2018-01-26T09:55:43.823Z,100928
2018-01-26T09:58:13.711Z,100921
2018-01-26T10:00:43.582Z,100929
2018-01-26T10:03:13.926Z,100904
2018-01-26T10:05:43.829Z,100920
2018-01-26T10:08:13.734Z,100912
2018-01-26T10:10:43.615Z,100921
2018-01-26T10:13:13.862Z,100919
2018-01-26T10:15:43.752Z,100913
2018-01-26T10:18:13.686Z,100919
2018-01-26T10:20:43.653Z,100914
2018-01-26T10:23:13.596Z,100913
2018-01-26T10:25:43.535Z,100927
2018-01-26T10:28:13.379Z,100922
2018-01-26T10:30:43.298Z,100919
2018-01-26T10:33:13.326Z,100914
2018-01-26T10:35:43.281Z,100913
2018-01-26T10:38:13.214Z,100910
2018-01-26T10:40:43.137Z,100913
2018-01-26T10:43:13.101Z,100905
2018-01-26T10:45:42.989Z,100906
2018-01-26T10:48:12.942Z,100909
2018-01-26T10:50:42.936Z,100923
2018-01-26T10:53:13.202Z,100923
2018-01-26T10:55:43.271Z,100922
2018-01-26T10:58:13.109Z,100935
2018-01-26T11:00:43.932Z,100930
2018-01-26T11:03:14.701Z,100931
2018-01-26T11:05:44.697Z,100936
2018-01-26T11:08:14.559Z,100933
2018-01-26T11:10:44.447Z,100938
2018-01-26T11:13:14.693Z,100939
2018-01-26T11:15:44.714Z,100941
2018-01-26T11:18:14.725Z,100929
2018-01-26T11:20:44.751Z,100942
2018-01-26T11:23:14.739Z,100945
2018-01-26T11:25:44.622Z,100948
2018-01-26T11:28:14.566Z,100966
2018-01-26T11:30:44.610Z,100966
2018-01-26T11:33:14.956Z,100957
2018-01-26T11:35:44.882Z,100959
2018-01-26T11:38:14.709Z,100957
2018-01-26T11:40:44.607Z,100958
2018-01-26T11:43:14.627Z,100964
2018-01-26T11:45:44.478Z,100969
2018-01-26T11:48:16.457Z,100961
2018-01-26T11:50:46.847Z,100968
2018-01-26T11:53:16.777Z,100970
2018-01-26T11:55:46.669Z,100974
2018-01-26T11:58:16.597Z,100968
2018-01-26T12:00:46.471Z,100981
2018-01-26T12:03:17.157Z,100967
2018-01-26T12:05:47.013Z,100974
2018-01-26T12:08:17.109Z,100969
2018-01-26T12:10:46.951Z,100975
2018-01-26T12:13:17.025Z,100983
2018-01-26T12:15:46.867Z,100977
2018-01-26T12:18:16.713Z,100970
2018-01-26T12:20:46.575Z,100980
2018-01-26T12:23:16.726Z,100980
2018-01-26T12:25:46.674Z,100981
2018-01-26T12:28:16.515Z,100985
2018-01-26T12:30:46.588Z,100984
2018-01-26T12:33:17.099Z,100995
2018-01-26T12:35:47.034Z,100988
2018-01-26T12:38:16.883Z,100990
2018-01-26T12:40:46.895Z,101006
2018-01-26T12:43:17.039Z,101002
2018-01-26T12:45:47.020Z,101007
2018-01-26T12:48:16.940Z,101005
2018-01-26T12:50:46.981Z,101007
2018-01-26T12:53:17.532Z,101013
2018-01-26T12:55:47.449Z,101023
2018-01-26T12:58:17.387Z,101021
2018-01-26T13:00:47.221Z,101024
2018-01-26T13:03:17.358Z,101024
2018-01-26T13:05:47.273Z,101022
2018-01-26T13:08:17.218Z,101032
2018-01-26T13:10:47.178Z,101034
2018-01-26T13:13:17.807Z,101042
2018-01-26T13:15:48.006Z,101054
2018-01-26T13:18:17.952Z,101047
2018-01-26T13:20:47.815Z,101050
2018-01-26T13:23:18.205Z,101048
2018-01-26T13:25:48.394Z,101061
2018-01-26T13:28:18.377Z,101052
2018-01-26T13:30:48.282Z,101064
2018-01-26T13:33:19.112Z,101067
2018-01-26T13:35:48.985Z,101060
2018-01-26T13:38:18.906Z,101059
2018-01-26T13:40:48.811Z,101068
2018-01-26T13:43:18.850Z,101059
2018-01-26T13:45:48.707Z,101058
2018-01-26T13:48:18.564Z,101068
2018-01-26T13:50:48.505Z,101066
2018-01-26T13:53:18.582Z,101072
2018-01-26T13:55:48.487Z,101073
2018-01-26T13:58:18.339Z,101072
2018-01-26T14:00:48.197Z,101078
2018-01-26T14:03:18.552Z,101077
2018-01-26T14:05:48.492Z,101074
2018-01-26T14:08:18.336Z,101073
2018-01-26T14:10:48.242Z,101080
2018-01-26T14:13:18.458Z,101076
2018-01-26T14:15:48.458Z,101078
2018-01-26T14:18:18.435Z,101081
2018-01-26T14:20:49.262Z,101096
2018-01-26T14:23:19.895Z,101095
2018-01-26T14:25:49.857Z,101092
2018-01-26T14:28:19.740Z,101101
2018-01-26T14:30:49.648Z,101112
2018-01-26T14:33:19.808Z,101113
2018-01-26T14:35:49.718Z,101111
2018-01-26T14:38:19.632Z,101122
2018-01-26T14:40:49.585Z,101125
2018-01-26T14:43:20.824Z,101127
2018-01-26T14:45:50.984Z,101129
2018-01-26T14:48:20.899Z,101128
2018-01-26T14:50:51.024Z,101126
2018-01-26T14:53:20.927Z,101131
2018-01-26T14:55:51.035Z,101130
2018-01-26T14:58:21.041Z,101130
2018-01-26T15:00:51.441Z,101144
2018-01-26T15:03:21.489Z,101144
2018-01-26T15:05:51.470Z,101146
2018-01-26T15:08:21.492Z,101159
2018-01-26T15:10:51.569Z,101157
2018-01-26T15:13:21.474Z,101164
2018-01-26T15:15:51.570Z,101171
2018-01-26T15:18:21.546Z,101169
2018-01-26T15:20:51.609Z,101168
2018-01-26T15:23:21.632Z,101169
2018-01-26T15:25:51.515Z,101177
2018-01-26T15:28:21.411Z,101169
2018-01-26T15:30:51.534Z,101167
2018-01-26T15:33:21.776Z,101206
2018-01-26T15:35:51.749Z,101205
2018-01-26T15:38:21.641Z,101200
2018-01-26T15:40:51.577Z,101207
2018-01-26T15:43:21.586Z,101213
2018-01-26T15:45:51.560Z,101210
2018-01-26T15:48:21.484Z,101220
2018-01-26T15:50:51.363Z,101227
2018-01-26T15:53:21.370Z,101231
2018-01-26T15:55:51.320Z,101229
2018-01-26T15:58:21.287Z,101244
2018-01-26T16:00:51.400Z,101241
2018-01-26T16:03:21.506Z,101253
2018-01-26T16:05:51.550Z,101257
2018-01-26T16:08:21.562Z,101255
2018-01-26T16:10:51.477Z,101259
2018-01-26T16:13:21.616Z,101152
2018-01-26T16:16:01.252Z,101273
2018-01-26T16:18:31.222Z,101270
2018-01-26T16:21:02.952Z,101274
2018-01-26T16:23:33.422Z,101289
2018-01-26T16:26:03.386Z,101287
2018-01-26T16:28:33.326Z,101306
2018-01-26T16:31:03.188Z,101287
2018-01-26T16:33:34.043Z,101304
2018-01-26T16:36:03.917Z,101309
2018-01-26T16:38:33.973Z,101310
2018-01-26T16:41:03.966Z,101315
2018-01-26T16:43:33.896Z,101307
2018-01-26T16:46:03.885Z,101312
2018-01-26T16:48:33.885Z,101310
2018-01-26T16:51:03.799Z,101317
2018-01-26T16:53:34.362Z,101315
2018-01-26T16:56:04.309Z,101317
2018-01-26T16:58:34.155Z,101320
2018-01-26T17:01:04.332Z,101325
2018-01-26T17:03:34.256Z,101337
2018-01-26T17:06:04.542Z,101329
2018-01-26T17:08:34.429Z,101321
2018-01-26T17:11:04.354Z,101340
2018-01-26T17:13:34.614Z,101335
2018-01-26T17:16:04.644Z,101344
2018-01-26T17:18:34.555Z,101341
2018-01-26T17:21:04.430Z,101355
2018-01-26T17:23:35.162Z,101355
2018-01-26T17:26:05.027Z,101352
2018-01-26T17:28:34.863Z,101357
2018-01-26T17:31:04.733Z,101359
2018-01-26T17:33:34.667Z,101351
2018-01-26T17:36:04.683Z,101365
2018-01-26T17:38:34.594Z,101368
2018-01-26T17:41:04.451Z,101370
2018-01-26T17:43:34.404Z,101372
2018-01-26T17:46:04.238Z,101364
2018-01-26T17:48:34.237Z,101366
2018-01-26T17:51:04.097Z,101368
2018-01-26T17:53:34.902Z,101335
2018-01-26T17:56:04.734Z,101366
2018-01-26T17:58:34.629Z,101369
2018-01-26T18:01:04.469Z,101366
2018-01-26T18:03:34.755Z,101362
2018-01-26T18:06:04.613Z,101363
2018-01-26T18:08:34.495Z,101358
2018-01-26T18:11:04.347Z,101368
2018-01-26T18:13:34.535Z,101368
2018-01-26T18:16:04.390Z,101380
2018-01-26T18:18:34.345Z,101377
2018-01-26T18:21:04.276Z,101385
2018-01-26T18:23:34.415Z,101384
2018-01-26T18:26:05.099Z,101383
2018-01-26T18:28:35.033Z,101383
2018-01-26T18:31:04.858Z,101385
2018-01-26T18:33:34.915Z,101385
2018-01-26T18:36:04.738Z,101384
2018-01-26T18:38:35.132Z,101388
2018-01-26T18:41:04.956Z,101383
2018-01-26T18:43:35.119Z,101396
2018-01-26T18:46:05.047Z,101400
2018-01-26T18:48:34.926Z,101411
2018-01-26T18:51:04.864Z,101413
2018-01-26T18:53:34.778Z,101415
2018-01-26T18:56:04.630Z,101422
2018-01-26T18:58:34.500Z,101419
2018-01-26T19:01:04.330Z,101427
2018-01-26T19:03:34.248Z,101428
2018-01-26T19:06:04.213Z,101433
2018-01-26T19:08:34.069Z,101433
2018-01-26T19:11:03.926Z,101438
2018-01-26T19:13:33.945Z,101444
2018-01-26T19:16:03.857Z,101448
2018-01-26T19:18:33.722Z,101454
2018-01-26T19:21:03.582Z,101461
2018-01-26T19:23:33.437Z,101458
2018-01-26T19:26:03.309Z,101458
2018-01-26T19:28:33.174Z,101467
2018-01-26T19:31:03.077Z,101469
2018-01-26T19:33:32.967Z,101474
2018-01-26T19:36:03.445Z,101474
2018-01-26T19:38:33.313Z,101473
2018-01-26T19:41:03.296Z,101485
2018-01-26T19:43:34.307Z,101493
2018-01-26T19:46:04.348Z,101488
2018-01-26T19:48:34.359Z,101504
2018-01-26T19:51:04.354Z,101494
2018-01-26T19:53:34.468Z,101501
2018-01-26T19:56:04.491Z,101508
2018-01-26T19:58:34.768Z,101516
2018-01-26T20:01:04.733Z,101517
2018-01-26T20:03:34.678Z,101520
2018-01-26T20:06:21.995Z,101529
2018-01-26T20:08:57.433Z,101524
2018-01-26T20:11:27.319Z,101539
2018-01-26T20:13:57.170Z,101540
2018-01-26T20:16:27.181Z,101551
2018-01-26T20:18:57.021Z,101544
2018-01-26T20:21:26.875Z,101541
2018-01-26T20:23:56.758Z,101545
2018-01-26T20:26:26.597Z,101552
2018-01-26T20:28:56.467Z,101552
2018-01-26T20:31:27.008Z,101558
2018-01-26T20:33:56.905Z,101558
2018-01-26T20:36:27.348Z,101560
2018-01-26T20:38:57.342Z,101568
2018-01-26T20:41:27.392Z,101573
2018-01-26T20:43:57.554Z,101569
2018-01-26T20:46:27.399Z,101582
2018-01-26T20:48:58.042Z,101580
2018-01-26T20:51:28.112Z,101585
2018-01-26T20:53:58.444Z,101593
2018-01-26T20:56:28.372Z,101589
2018-01-26T20:58:58.357Z,101591
2018-01-26T21:01:28.311Z,101600
2018-01-26T21:03:58.389Z,101602
2018-01-26T21:06:28.294Z,101614
2018-01-26T21:08:58.281Z,101606
2018-01-26T21:11:28.183Z,101616
2018-01-26T21:13:58.287Z,101617
2018-01-26T21:16:28.266Z,101615
2018-01-26T21:18:58.646Z,101621
2018-01-26T21:21:30.539Z,101621
2018-01-26T21:24:00.441Z,101617
2018-01-26T21:26:30.326Z,101623
2018-01-26T21:29:00.437Z,101621
2018-01-26T21:34:06.820Z,101642
2018-01-26T21:36:36.663Z,101648
2018-01-26T21:39:06.637Z,101647
2018-01-26T21:41:36.727Z,101643
2018-01-26T21:44:06.702Z,101629
2018-01-26T21:46:36.633Z,101642
2018-01-26T21:49:06.570Z,101640
2018-01-26T21:51:36.553Z,101640
2018-01-26T21:54:06.455Z,101650
2018-01-26T21:56:36.338Z,101646
2018-01-26T21:59:06.262Z,101656
2018-01-26T22:01:36.117Z,101669
2018-01-26T22:04:06.006Z,101675
2018-01-26T22:06:41.572Z,101669
2018-01-26T22:09:11.505Z,101668
2018-01-26T22:11:41.646Z,101671
2018-01-26T22:14:11.578Z,101667
2018-01-26T22:16:41.436Z,101676
2018-01-26T22:19:11.432Z,101666
2018-01-26T22:21:41.253Z,101689
2018-01-26T22:24:11.164Z,101681
2018-01-26T22:26:41.113Z,101680
2018-01-26T22:29:11.083Z,101680
2018-01-26T22:31:40.972Z,101692
2018-01-26T22:34:10.837Z,101692
2018-01-26T22:36:41.319Z,101696
2018-01-26T22:39:11.574Z,101699
2018-01-26T22:41:41.450Z,101703
2018-01-26T22:44:11.516Z,101715
2018-01-26T22:46:41.403Z,101717
2018-01-26T22:49:11.623Z,101712
2018-01-26T22:51:41.450Z,101718
2018-01-26T22:54:11.382Z,101723
2018-01-26T22:56:41.227Z,101725
2018-01-26T22:59:11.505Z,101728
2018-01-26T23:01:41.470Z,101726
2018-01-26T23:04:11.340Z,101730
2018-01-26T23:06:41.335Z,101729
2018-01-26T23:09:11.362Z,101732
2018-01-26T23:11:41.236Z,101734
2018-01-26T23:14:11.168Z,101727
2018-01-26T23:16:41.118Z,101738
2018-01-26T23:19:10.997Z,101743
2018-01-26T23:21:40.849Z,101746
2018-01-26T23:24:11.529Z,101752
2018-01-26T23:26:41.370Z,101744
2018-01-26T23:29:11.282Z,101745
2018-01-26T23:31:41.268Z,101757
2018-01-26T23:34:11.122Z,101764
2018-01-26T23:36:41.054Z,101772
2018-01-26T23:39:10.909Z,101769
2018-01-26T23:41:40.799Z,101769
2018-01-26T23:44:10.679Z,101766
2018-01-26T23:46:40.538Z,101770
2018-01-26T23:49:10.395Z,101773
2018-01-26T23:51:40.387Z,101777
2018-01-26T23:54:10.255Z,101776
2018-01-26T23:56:40.149Z,101781
2018-01-26T23:59:10.080Z,101784
